createdAt,value
2022-08-12T00:00:09.211Z,20.80
2022-08-12T00:02:55.415Z,20.70
2022-08-12T00:05:44.487Z,20.50
2022-08-12T00:08:52.587Z,20.40
2022-08-12T00:11:39.682Z,20.40
2022-08-12T00:14:25.221Z,20.40
2022-08-12T00:17:11.257Z,20.30
2022-08-12T00:19:56.515Z,20.30
2022-08-12T00:22:42.411Z,20.60
2022-08-12T00:25:51.277Z,20.50
2022-08-12T00:28:34.377Z,20.20
2022-08-12T00:31:20.258Z,19.90
2022-08-12T00:34:05.750Z,19.90
2022-08-12T00:36:51.050Z,19.90
2022-08-12T00:39:37.382Z,19.90
2022-08-12T00:42:10.562Z,19.80
2022-08-12T00:44:43.474Z,19.70
2022-08-12T00:47:24.512Z,19.60
2022-08-12T00:49:54.355Z,19.50
2022-08-12T00:52:22.236Z,19.60
2022-08-12T00:54:50.868Z,19.60
2022-08-12T00:57:23.627Z,19.80
2022-08-12T00:59:57.204Z,19.50
2022-08-12T01:02:33.269Z,19.70
2022-08-12T01:05:30.247Z,19.60
2022-08-12T01:08:16.395Z,19.60
2022-08-12T01:11:04.490Z,19.90
2022-08-12T01:13:35.907Z,20.20
2022-08-12T01:16:05.934Z,20.00
2022-08-12T01:18:35.426Z,20.00
2022-08-12T01:21:41.258Z,19.90
2022-08-12T01:24:43.867Z,19.60
2022-08-12T01:27:11.318Z,19.60
2022-08-12T01:29:43.898Z,19.50
2022-08-12T01:32:15.790Z,19.50
2022-08-12T01:35:06.991Z,19.40
2022-08-12T01:37:36.967Z,19.40
2022-08-12T01:40:34.040Z,19.30
2022-08-12T01:42:55.171Z,19.40
2022-08-12T01:45:24.479Z,19.30
2022-08-12T01:48:34.897Z,19.20
2022-08-12T01:52:15.962Z,19.30
2022-08-12T01:54:17.637Z,19.40
2022-08-12T01:56:52.855Z,19.50
2022-08-12T01:59:47.156Z,19.40
2022-08-12T02:02:16.742Z,19.30
2022-08-12T02:05:11.153Z,19.50
2022-08-12T02:08:19.444Z,19.50
2022-08-12T02:11:11.810Z,19.50
2022-08-12T02:14:20.157Z,19.10
2022-08-12T02:17:20.206Z,19.10
2022-08-12T02:20:11.116Z,18.90
2022-08-12T02:22:42.470Z,19.00
2022-08-12T02:25:29.391Z,19.10
2022-08-12T02:27:57.033Z,19.00
2022-08-12T02:30:35.379Z,19.10
2022-08-12T02:33:10.787Z,19.10
2022-08-12T02:35:39.550Z,19.10
2022-08-12T02:38:09.450Z,18.90
2022-08-12T02:40:39.620Z,19.10
2022-08-12T02:43:41.375Z,18.90
2022-08-12T02:46:14.532Z,18.70
2022-08-12T02:49:04.649Z,18.80
2022-08-12T02:51:41.514Z,19.00
2022-08-12T02:54:08.697Z,18.80
2022-08-12T02:56:40.370Z,18.70
2022-08-12T02:59:10.577Z,18.80
2022-08-12T03:01:48.646Z,18.60
2022-08-12T03:04:43.609Z,18.80
2022-08-12T03:07:16.611Z,18.80
2022-08-12T03:10:03.747Z,18.30
2022-08-12T03:12:49.897Z,18.10
2022-08-12T03:15:22.454Z,18.30
2022-08-12T03:18:24.073Z,18.30
2022-08-12T03:20:55.251Z,18.40
2022-08-12T03:23:29.658Z,18.30
2022-08-12T03:25:59.426Z,18.40
2022-08-12T03:28:46.731Z,18.60
2022-08-12T03:31:13.615Z,18.50
2022-08-12T03:33:43.761Z,18.60
2022-08-12T03:36:20.650Z,18.70
2022-08-12T03:39:16.580Z,18.50
2022-08-12T03:41:50.290Z,18.10
2022-08-12T03:44:49.635Z,18.10
2022-08-12T03:47:41.066Z,18.10
2022-08-12T03:50:26.480Z,18.00
2022-08-12T03:53:11.774Z,17.80
2022-08-12T03:55:57.079Z,18.10
2022-08-12T03:58:43.940Z,18.40
2022-08-12T04:01:11.876Z,18.10
2022-08-12T04:03:54.683Z,17.90
2022-08-12T04:06:35.246Z,18.00
2022-08-12T04:09:15.941Z,17.80
2022-08-12T04:12:03.204Z,17.90
2022-08-12T04:14:30.198Z,17.90
2022-08-12T04:16:57.379Z,17.90
2022-08-12T04:19:26.090Z,17.80
2022-08-12T04:22:01.338Z,17.70
2022-08-12T04:24:29.703Z,17.70
2022-08-12T04:26:56.570Z,17.60
2022-08-12T04:30:30.523Z,17.90
2022-08-12T04:32:10.747Z,17.80
2022-08-12T04:34:38.692Z,17.90
2022-08-12T04:37:05.585Z,17.90
2022-08-12T04:39:33.730Z,18.10
2022-08-12T04:42:01.080Z,18.20
2022-08-12T04:44:28.024Z,18.10
2022-08-12T04:46:55.896Z,18.30
2022-08-12T04:49:24.282Z,18.40
2022-08-12T04:51:57.593Z,18.40
2022-08-12T04:54:27.555Z,18.40
2022-08-12T04:57:04.815Z,18.30
2022-08-12T04:59:47.829Z,18.30
2022-08-12T05:02:20.586Z,18.40
2022-08-12T05:04:51.142Z,18.30
2022-08-12T05:07:18.046Z,18.30
2022-08-12T05:10:01.132Z,18.40
2022-08-12T05:12:37.886Z,18.40
2022-08-12T05:15:19.848Z,18.30
2022-08-12T05:17:53.954Z,18.40
2022-08-12T05:20:22.295Z,18.30
2022-08-12T05:22:53.141Z,18.30
2022-08-12T05:25:24.657Z,18.20
2022-08-12T05:27:55.374Z,18.50
2022-08-12T05:30:25.115Z,18.60
2022-08-12T05:32:51.922Z,18.60
2022-08-12T05:35:22.457Z,18.70
2022-08-12T05:38:10.257Z,18.70
2022-08-12T05:40:37.178Z,18.20
2022-08-12T05:43:04.177Z,18.50
2022-08-12T05:45:31.033Z,18.70
2022-08-12T05:47:57.817Z,19.00
2022-08-12T05:50:25.600Z,18.90
2022-08-12T05:52:53.971Z,18.50
2022-08-12T05:55:20.955Z,18.30
2022-08-12T05:57:56.952Z,18.30
2022-08-12T06:00:25.854Z,18.70
2022-08-12T06:03:01.114Z,18.80
2022-08-12T06:05:29.143Z,18.70
2022-08-12T06:08:01.284Z,18.50
2022-08-12T06:10:32.163Z,18.40
2022-08-12T06:13:02.239Z,18.40
2022-08-12T06:15:30.342Z,18.50
2022-08-12T06:18:13.883Z,18.60
2022-08-12T06:20:47.289Z,18.70
2022-08-12T06:23:15.319Z,18.80
2022-08-12T06:25:43.566Z,19.00
2022-08-12T06:28:20.318Z,19.10
2022-08-12T06:31:08.236Z,19.10
2022-08-12T06:33:55.065Z,19.20
2022-08-12T06:36:24.978Z,19.40
2022-08-12T06:38:57.378Z,19.30
2022-08-12T06:42:10.783Z,19.40
2022-08-12T06:44:29.888Z,19.30
2022-08-12T06:46:58.282Z,19.50
2022-08-12T06:49:25.368Z,19.90
2022-08-12T06:51:56.890Z,19.50
2022-08-12T06:54:30.865Z,19.90
2022-08-12T06:58:05.702Z,20.10
2022-08-12T06:59:46.533Z,19.90
2022-08-12T07:02:13.755Z,19.80
2022-08-12T07:04:40.674Z,19.80
2022-08-12T07:07:10.032Z,20.00
2022-08-12T07:10:03.956Z,20.30
2022-08-12T07:12:28.034Z,20.30
2022-08-12T07:14:55.989Z,20.60
2022-08-12T07:17:22.854Z,20.70
2022-08-12T07:19:51.740Z,20.40
2022-08-12T07:22:18.793Z,20.50
2022-08-12T07:25:05.621Z,20.60
2022-08-12T07:27:40.419Z,20.40
2022-08-12T07:30:08.106Z,20.10
2022-08-12T07:32:34.836Z,20.00
2022-08-12T07:35:03.995Z,20.30
2022-08-12T07:37:31.385Z,20.30
2022-08-12T07:40:00.274Z,20.40
2022-08-12T07:42:29.460Z,20.70
2022-08-12T07:44:56.714Z,20.80
2022-08-12T07:47:24.410Z,20.70
2022-08-12T07:50:05.374Z,20.50
2022-08-12T07:52:42.526Z,20.90
2022-08-12T07:55:10.923Z,20.80
2022-08-12T07:57:59.304Z,21.00
2022-08-12T08:00:28.294Z,21.40
2022-08-12T08:02:55.289Z,21.30
2022-08-12T08:05:23.858Z,21.30
2022-08-12T08:07:53.290Z,21.30
2022-08-12T08:10:20.944Z,21.40
2022-08-12T08:12:54.036Z,21.60
2022-08-12T08:15:51.334Z,21.40
2022-08-12T08:18:26.631Z,21.80
2022-08-12T08:20:56.211Z,21.70
2022-08-12T08:23:29.457Z,21.50
2022-08-12T08:26:02.161Z,21.60
2022-08-12T08:28:29.277Z,21.50
2022-08-12T08:30:56.092Z,21.40
2022-08-12T08:34:09.572Z,21.40
2022-08-12T08:36:16.137Z,21.30
2022-08-12T08:38:57.547Z,21.40
2022-08-12T08:42:19.375Z,21.50
2022-08-12T08:44:38.154Z,21.60
2022-08-12T08:47:10.791Z,21.70
2022-08-12T08:49:38.611Z,21.70
2022-08-12T08:52:07.354Z,21.90
2022-08-12T08:54:34.683Z,22.30
2022-08-12T08:57:05.527Z,22.20
2022-08-12T08:59:32.411Z,22.30
2022-08-12T09:01:59.449Z,22.30
2022-08-12T09:05:12.546Z,22.20
2022-08-12T09:07:17.755Z,22.10
2022-08-12T09:10:05.586Z,22.40
2022-08-12T09:13:02.133Z,22.40
2022-08-12T09:15:34.986Z,22.70
2022-08-12T09:18:05.729Z,22.80
2022-08-12T09:20:37.160Z,22.80
2022-08-12T09:23:58.770Z,22.90
2022-08-12T09:26:04.065Z,23.00
2022-08-12T09:28:34.348Z,23.00
2022-08-12T09:32:07.773Z,23.10
2022-08-12T09:34:28.566Z,23.10
2022-08-12T09:36:58.058Z,23.30
2022-08-12T09:40:02.012Z,23.60
2022-08-12T09:42:43.289Z,23.40
2022-08-12T09:45:23.565Z,23.30
2022-08-12T09:47:59.116Z,23.60
2022-08-12T09:50:27.964Z,24.00
2022-08-12T09:53:15.062Z,23.70
2022-08-12T09:56:07.378Z,23.80
2022-08-12T09:58:53.988Z,23.70
2022-08-12T10:01:24.465Z,23.60
2022-08-12T10:04:03.482Z,24.00
2022-08-12T10:06:36.311Z,24.00
2022-08-12T10:09:08.820Z,24.40
2022-08-12T10:12:09.918Z,24.60
2022-08-12T10:14:38.162Z,24.40
2022-08-12T10:17:08.837Z,24.40
2022-08-12T10:19:37.725Z,24.40
2022-08-12T10:22:16.569Z,24.30
2022-08-12T10:24:43.954Z,24.70
2022-08-12T10:28:03.636Z,24.50
2022-08-12T10:30:41.498Z,24.50
2022-08-12T10:33:19.278Z,24.20
2022-08-12T10:35:58.367Z,24.30
2022-08-12T10:38:37.562Z,24.50
2022-08-12T10:41:57.743Z,24.60
2022-08-12T10:44:17.523Z,25.10
2022-08-12T10:46:49.687Z,25.10
2022-08-12T10:50:05.000Z,25.30
2022-08-12T10:52:34.617Z,25.20
2022-08-12T10:54:55.908Z,25.20
2022-08-12T10:58:15.268Z,25.50
2022-08-12T11:00:33.974Z,25.40
2022-08-12T11:04:25.740Z,25.30
2022-08-12T11:07:05.152Z,25.60
2022-08-12T11:08:42.960Z,25.60
2022-08-12T11:12:07.590Z,26.10
2022-08-12T11:14:05.750Z,26.30
2022-08-12T11:16:33.865Z,25.60
2022-08-12T11:19:03.166Z,26.30
2022-08-12T11:21:56.235Z,26.60
2022-08-12T11:24:31.726Z,26.40
2022-08-12T11:27:07.587Z,26.10
2022-08-12T11:30:01.799Z,26.90
2022-08-12T11:32:25.670Z,27.20
2022-08-12T11:34:54.998Z,26.90
2022-08-12T11:37:24.732Z,26.90
2022-08-12T11:42:39.759Z,26.40
2022-08-12T11:45:16.993Z,26.60
2022-08-12T11:47:44.508Z,27.00
2022-08-12T11:50:19.652Z,26.90
2022-08-12T11:53:56.915Z,26.80
2022-08-12T11:55:45.355Z,26.30
2022-08-12T11:59:28.634Z,27.10
2022-08-12T12:03:48.069Z,27.60
2022-08-12T12:06:17.269Z,27.50
2022-08-12T12:08:50.380Z,27.30
2022-08-12T12:11:18.331Z,26.30
2022-08-12T12:14:07.836Z,26.60
2022-08-12T12:16:33.301Z,27.60
2022-08-12T12:19:10.013Z,27.60
2022-08-12T12:21:48.017Z,27.50
2022-08-12T12:24:21.887Z,27.50
2022-08-12T12:27:00.358Z,27.30
2022-08-12T12:30:18.624Z,27.50
2022-08-12T12:32:18.885Z,27.60
2022-08-12T12:35:14.254Z,27.90
2022-08-12T12:38:05.611Z,27.50
2022-08-12T12:40:21.725Z,27.80
2022-08-12T12:43:01.650Z,28.10
2022-08-12T12:45:33.916Z,28.40
2022-08-12T12:48:29.008Z,28.40
2022-08-12T12:51:14.910Z,28.20
2022-08-12T12:54:07.644Z,28.30
2022-08-12T12:56:42.235Z,28.40
2022-08-12T12:59:56.512Z,29.00
2022-08-12T13:01:59.293Z,29.00
2022-08-12T13:04:27.095Z,29.20
2022-08-12T13:06:54.116Z,28.80
2022-08-12T13:09:22.322Z,28.00
2022-08-12T13:11:52.997Z,28.40
2022-08-12T13:14:29.449Z,28.40
2022-08-12T13:17:01.210Z,28.60
2022-08-12T13:19:37.865Z,28.30
2022-08-12T13:22:18.456Z,28.80
2022-08-12T13:24:54.805Z,29.10
2022-08-12T13:27:36.296Z,29.40
2022-08-12T13:30:15.442Z,28.50
2022-08-12T13:32:57.306Z,29.20
2022-08-12T13:35:33.703Z,29.80
2022-08-12T13:38:26.682Z,30.20
2022-08-12T13:41:03.060Z,29.50
2022-08-12T13:43:41.546Z,29.10
2022-08-12T13:46:12.182Z,28.80
2022-08-12T13:48:44.942Z,28.90
2022-08-12T13:51:13.208Z,29.10
2022-08-12T13:53:59.041Z,29.50
2022-08-12T13:56:34.498Z,29.40
2022-08-12T13:59:05.504Z,29.90
2022-08-12T14:01:35.657Z,30.40
2022-08-12T14:04:11.626Z,30.20
2022-08-12T14:06:40.040Z,29.70
2022-08-12T14:09:17.935Z,29.40
2022-08-12T14:11:59.180Z,29.00
2022-08-12T14:14:31.671Z,28.60
2022-08-12T14:17:05.712Z,28.90
2022-08-12T14:19:48.669Z,29.10
2022-08-12T14:22:20.609Z,29.00
2022-08-12T14:24:47.390Z,28.90
2022-08-12T14:27:14.240Z,28.60
2022-08-12T14:30:15.501Z,28.80
2022-08-12T14:32:45.305Z,28.90
2022-08-12T14:35:12.266Z,28.00
2022-08-12T14:37:57.246Z,27.80
2022-08-12T14:40:29.702Z,27.90
2022-08-12T14:42:58.224Z,27.00
2022-08-12T14:45:44.837Z,27.10
2022-08-12T14:48:14.761Z,27.90
2022-08-12T14:51:09.843Z,28.70
2022-08-12T14:59:57.274Z,29.40
2022-08-12T15:02:20.848Z,29.10
2022-08-12T15:04:59.731Z,29.20
2022-08-12T15:07:34.128Z,29.60
2022-08-12T15:10:14.978Z,29.70
2022-08-12T15:12:58.218Z,29.10
2022-08-12T15:15:25.747Z,28.60
2022-08-12T15:18:02.128Z,28.60
2022-08-12T15:20:37.735Z,29.00
2022-08-12T15:23:17.759Z,29.50
2022-08-12T15:25:48.646Z,29.00
2022-08-12T15:28:27.564Z,29.30
2022-08-12T15:30:54.780Z,29.50
2022-08-12T15:33:44.953Z,29.70
2022-08-12T15:36:19.417Z,29.70
2022-08-12T15:39:02.439Z,29.90
2022-08-12T15:41:29.574Z,30.30
2022-08-12T15:44:41.895Z,30.60
2022-08-12T15:47:04.275Z,29.90
2022-08-12T15:49:54.457Z,29.70
2022-08-12T15:52:27.796Z,30.30
2022-08-12T15:54:58.509Z,30.30
2022-08-12T15:57:27.047Z,29.70
2022-08-12T16:00:06.417Z,29.50
2022-08-12T16:02:47.419Z,29.40
2022-08-12T16:06:15.522Z,29.20
2022-08-12T16:08:18.424Z,29.80
2022-08-12T16:10:45.607Z,30.40
2022-08-12T16:13:14.922Z,31.00
2022-08-12T16:15:51.099Z,30.80
2022-08-12T16:18:31.297Z,31.00
2022-08-12T16:20:58.265Z,30.60
2022-08-12T16:23:52.135Z,29.90
2022-08-12T16:26:14.658Z,29.60
2022-08-12T16:28:44.068Z,29.20
2022-08-12T16:31:22.533Z,29.30
2022-08-12T16:33:58.860Z,29.30
2022-08-12T16:36:30.867Z,29.70
2022-08-12T16:39:01.040Z,29.70
2022-08-12T16:41:39.931Z,30.30
2022-08-12T16:44:08.933Z,30.20
2022-08-12T16:46:37.610Z,29.20
2022-08-12T16:49:09.111Z,28.80
2022-08-12T16:51:46.986Z,29.30
2022-08-12T16:54:18.879Z,28.90
2022-08-12T16:56:51.144Z,28.20
2022-08-12T16:59:22.400Z,27.90
2022-08-12T17:01:49.628Z,27.90
2022-08-12T17:04:17.605Z,28.30
2022-08-12T17:06:47.770Z,28.40
2022-08-12T17:09:17.783Z,27.80
2022-08-12T17:11:46.790Z,28.20
2022-08-12T17:14:23.181Z,28.00
2022-08-12T17:16:52.220Z,27.60
2022-08-12T17:19:20.529Z,27.20
2022-08-12T17:22:09.519Z,27.10
2022-08-12T17:24:39.990Z,27.20
2022-08-12T17:27:16.308Z,27.40
2022-08-12T17:30:02.882Z,27.30
2022-08-12T17:32:33.528Z,27.00
2022-08-12T17:35:20.075Z,26.80
2022-08-12T17:37:48.497Z,26.70
2022-08-12T17:40:34.444Z,26.80
2022-08-12T17:43:55.673Z,26.90
2022-08-12T17:45:58.868Z,27.00
2022-08-12T17:48:34.387Z,26.80
2022-08-12T17:51:15.179Z,26.70
2022-08-12T17:54:11.416Z,26.50
2022-08-12T17:56:37.174Z,26.50
2022-08-12T17:59:04.402Z,26.30
2022-08-12T18:01:35.907Z,26.40
2022-08-12T18:04:21.675Z,26.50
2022-08-12T18:06:52.304Z,26.50
2022-08-12T18:09:21.796Z,26.50
2022-08-12T18:12:12.024Z,26.40
2022-08-12T18:14:40.992Z,26.40
2022-08-12T18:17:10.141Z,26.40
2022-08-12T18:20:05.872Z,26.40
2022-08-12T18:22:31.574Z,26.30
2022-08-12T18:25:24.963Z,26.30
2022-08-12T18:28:12.322Z,26.20
2022-08-12T18:30:52.529Z,26.20
2022-08-12T18:33:25.128Z,26.10
2022-08-12T18:35:55.518Z,26.00
2022-08-12T18:38:25.289Z,26.00
2022-08-12T18:41:21.333Z,25.90
2022-08-12T18:44:09.403Z,25.80
2022-08-12T18:47:01.398Z,25.70
2022-08-12T18:49:39.159Z,25.60
2022-08-12T18:52:08.630Z,25.60
2022-08-12T18:54:49.083Z,25.50
2022-08-12T18:58:05.895Z,25.40
2022-08-12T19:00:21.606Z,25.40
2022-08-12T19:02:50.874Z,25.30
2022-08-12T19:05:17.842Z,25.30
2022-08-12T19:08:01.304Z,25.20
2022-08-12T19:10:31.398Z,25.20
2022-08-12T19:13:23.515Z,25.20
2022-08-12T19:15:57.736Z,25.20
2022-08-12T19:18:29.832Z,25.20
2022-08-12T19:20:58.969Z,25.10
2022-08-12T19:23:34.023Z,25.10
2022-08-12T19:26:03.665Z,25.10
2022-08-12T19:28:35.173Z,25.10
2022-08-12T19:31:45.436Z,25.10
2022-08-12T19:38:04.493Z,25.10
2022-08-12T19:40:20.258Z,25.10
2022-08-12T19:43:00.696Z,25.00
2022-08-12T19:45:43.242Z,25.00
2022-08-12T19:48:17.932Z,25.00
2022-08-12T19:50:50.195Z,24.90
2022-08-12T19:53:23.871Z,24.80
2022-08-12T19:55:53.673Z,24.90
2022-08-12T19:58:22.153Z,24.90
2022-08-12T20:00:53.248Z,24.90
2022-08-12T20:03:39.592Z,24.90
2022-08-12T20:06:15.699Z,24.80
2022-08-12T20:08:49.065Z,24.80
2022-08-12T20:12:12.661Z,24.70
2022-08-12T20:14:19.042Z,24.50
2022-08-12T20:16:53.155Z,24.60
2022-08-12T20:19:52.963Z,24.50
2022-08-12T20:22:24.854Z,24.60
2022-08-12T20:25:01.084Z,24.60
2022-08-12T20:28:04.425Z,24.40
2022-08-12T20:30:20.194Z,24.20
2022-08-12T20:32:59.153Z,24.10
2022-08-12T20:36:05.992Z,24.10
2022-08-12T20:38:26.548Z,24.00
2022-08-12T20:40:55.636Z,23.90
2022-08-12T20:43:24.201Z,23.90
2022-08-12T20:45:57.650Z,23.90
2022-08-12T20:48:28.540Z,24.00
2022-08-12T20:50:57.493Z,24.10
2022-08-12T20:53:27.761Z,24.00
2022-08-12T20:56:22.004Z,24.00
2022-08-12T20:58:57.844Z,23.90
2022-08-12T21:01:29.102Z,23.80
2022-08-12T21:04:30.324Z,23.80
2022-08-12T21:06:58.003Z,23.80
2022-08-12T21:09:42.376Z,23.80
2022-08-12T21:12:27.675Z,23.80
2022-08-12T21:15:05.703Z,23.90
2022-08-12T21:18:09.057Z,23.80
2022-08-12T21:20:35.028Z,23.80
2022-08-12T21:23:04.374Z,23.70
2022-08-12T21:25:35.973Z,23.70
2022-08-12T21:28:12.476Z,23.70
2022-08-12T21:31:10.837Z,23.60
2022-08-12T21:34:06.577Z,23.60
2022-08-12T21:36:32.053Z,23.50
2022-08-12T21:39:18.582Z,23.50
2022-08-12T21:41:52.589Z,23.40
2022-08-12T21:45:43.806Z,23.30
2022-08-12T21:47:21.500Z,23.40
2022-08-12T21:50:02.226Z,23.30
2022-08-12T21:52:34.900Z,23.20
2022-08-12T21:55:08.206Z,23.10
2022-08-12T21:57:50.610Z,23.30
2022-08-12T22:00:31.517Z,23.30
2022-08-12T22:04:03.895Z,23.40
2022-08-12T22:06:30.611Z,23.30
2022-08-12T22:09:16.519Z,23.40
2022-08-12T22:11:49.115Z,23.40
2022-08-12T22:14:24.232Z,23.30
2022-08-12T22:16:53.259Z,23.30
2022-08-12T22:19:21.455Z,23.20
2022-08-12T22:21:55.907Z,23.20
2022-08-12T22:24:27.248Z,23.20
2022-08-12T22:27:18.141Z,23.20
2022-08-12T22:30:07.799Z,23.10
2022-08-12T22:32:42.049Z,23.10
2022-08-12T22:35:56.681Z,23.30
2022-08-12T22:38:20.676Z,23.50
2022-08-12T22:40:53.034Z,23.50
2022-08-12T22:43:59.012Z,23.40
2022-08-12T22:46:37.328Z,23.40
2022-08-12T22:49:06.670Z,23.30
2022-08-12T22:52:00.969Z,23.30
2022-08-12T22:54:35.965Z,23.30
2022-08-12T22:57:05.182Z,23.30
2022-08-12T22:59:55.442Z,23.40
2022-08-12T23:02:29.069Z,23.40
2022-08-12T23:04:58.329Z,23.20
2022-08-12T23:07:25.252Z,22.80
2022-08-12T23:09:52.246Z,22.70
2022-08-12T23:12:46.618Z,22.50
2022-08-12T23:15:14.394Z,22.50
2022-08-12T23:17:42.564Z,22.30
2022-08-12T23:20:11.295Z,22.30
2022-08-12T23:22:40.264Z,22.20
2022-08-12T23:25:32.576Z,22.20
2022-08-12T23:28:31.231Z,22.20
2022-08-12T23:31:04.524Z,22.30
2022-08-12T23:33:59.821Z,22.40
2022-08-12T23:36:31.440Z,22.40
2022-08-12T23:40:13.537Z,22.40
2022-08-12T23:42:17.636Z,22.20
2022-08-12T23:44:43.873Z,22.30
2022-08-12T23:47:12.628Z,22.30
2022-08-12T23:49:57.833Z,22.50
2022-08-12T23:52:28.546Z,22.40
2022-08-12T23:55:24.202Z,22.40
2022-08-12T23:57:59.352Z,22.50
